Time;durP1;ratioP1;P1;durP2;ratioP2;P2;SDS_P1;SDS_P2;PMS_P1;PMS_P2;Temp;Humidity;BMP_temperature;BMP_pressure;BME280_temperature;BME280_humidity;BME280_pressure;Samples;Min_cycle;Max_cycle;Signal;HPM_P1;HPM_P2
2022/05/19 00:02:15;;;;;;;4.07;3.70;;;17.10;56.80;;;;;;5248128;28;20466;-51
2022/05/19 00:04:46;;;;;;;3.00;2.80;;;17.00;57.60;;;;;;5234472;28;20429;-51
2022/05/19 00:07:18;;;;;;;3.27;3.07;;;17.10;57.00;;;;;;5236813;28;20270;-51
2022/05/19 00:09:49;;;;;;;4.93;3.80;;;17.10;57.30;;;;;;5235206;28;20527;-50
2022/05/19 00:12:22;;;;;;;3.83;3.50;;;17.00;57.80;;;;;;5226613;28;20499;-50
2022/05/19 00:14:52;;;;;;;4.03;3.47;;;16.90;57.80;;;;;;5241675;28;20917;-51
2022/05/19 00:17:23;;;;;;;5.77;3.67;;;16.90;58.10;;;;;;5247770;28;20424;-50
2022/05/19 00:19:53;;;;;;;4.83;2.87;;;16.80;58.20;;;;;;5247809;28;20221;-50
2022/05/19 00:22:24;;;;;;;7.70;3.37;;;16.80;58.60;;;;;;5237553;28;20650;-51
2022/05/19 00:24:54;;;;;;;5.43;2.97;;;16.80;58.80;;;;;;5240755;28;20206;-50
2022/05/19 00:27:25;;;;;;;4.80;3.20;;;16.70;59.00;;;;;;5240584;28;20550;-51
2022/05/19 00:29:55;;;;;;;3.97;3.27;;;16.70;59.30;;;;;;5248352;28;20209;-51
2022/05/19 00:32:26;;;;;;;4.10;3.60;;;16.70;59.70;;;;;;5248219;28;20182;-51
2022/05/19 00:34:57;;;;;;;5.23;2.93;;;16.80;59.90;;;;;;5247698;28;20685;-50
2022/05/19 00:37:27;;;;;;;4.50;3.80;;;16.70;60.10;;;;;;5245139;28;20646;-50
2022/05/19 00:39:58;;;;;;;5.43;3.27;;;16.70;60.30;;;;;;5238021;28;20245;-53
2022/05/19 00:42:43;;;;;;;3.93;3.70;;;16.70;60.60;;;;;;5246386;28;20230;-50
2022/05/19 00:45:20;;;;;;;6.53;3.80;;;16.60;60.70;;;;;;5246359;28;20194;-52
2022/05/19 00:48:06;;;;;;;4.10;3.77;;;16.60;61.30;;;;;;5249380;28;20428;-51
2022/05/19 00:50:54;;;;;;;4.60;4.20;;;16.50;61.80;;;;;;5241054;28;20501;-51
2022/05/19 00:53:44;;;;;;;5.10;3.70;;;16.50;61.90;;;;;;5238983;28;20524;-51
2022/05/19 00:56:36;;;;;;;5.20;3.80;;;16.50;62.40;;;;;;5246263;28;20553;-51
2022/05/19 00:59:10;;;;;;;3.67;3.40;;;16.50;63.20;;;;;;5248035;28;20548;-52
2022/05/19 01:01:43;;;;;;;3.50;2.87;;;16.40;63.90;;;;;;5247144;28;20959;-51
2022/05/19 01:04:14;;;;;;;3.80;3.27;;;16.40;64.70;;;;;;5243874;28;20517;-50
2022/05/19 01:06:47;;;;;;;7.13;3.33;;;16.30;64.90;;;;;;5257069;28;20532;-51
2022/05/19 01:09:18;;;;;;;4.60;3.47;;;16.30;65.70;;;;;;5235882;28;20655;-50
2022/05/19 01:11:54;;;;;;;6.23;3.47;;;16.30;65.90;;;;;;5227184;28;20471;-50
2022/05/19 01:14:24;;;;;;;3.53;3.33;;;16.30;66.40;;;;;;5241348;28;20309;-49
2022/05/19 01:16:55;;;;;;;3.27;3.17;;;16.30;67.10;;;;;;5237629;28;21036;-50
2022/05/19 01:19:33;;;;;;;4.40;4.00;;;16.20;67.90;;;;;;5244890;28;20407;-50
2022/05/19 01:22:31;;;;;;;7.83;3.47;;;16.20;68.90;;;;;;5242383;28;20179;-50
2022/05/19 01:25:12;;;;;;;7.23;4.20;;;16.10;69.60;;;;;;5246841;28;20452;-51
2022/05/19 01:27:43;;;;;;;3.67;3.40;;;16.20;70.10;;;;;;5242240;28;20536;-50
2022/05/19 01:30:14;;;;;;;4.77;3.87;;;16.10;70.70;;;;;;5228092;28;20859;-50
2022/05/19 01:32:44;;;;;;;9.43;3.90;;;16.00;71.40;;;;;;5246670;28;20186;-51
2022/05/19 01:35:15;;;;;;;5.17;3.40;;;16.10;71.70;;;;;;5244020;28;20297;-50
2022/05/19 01:37:45;;;;;;;4.30;3.13;;;16.00;72.70;;;;;;5245068;28;20182;-50
2022/05/19 01:40:35;;;;;;;3.03;2.93;;;16.00;73.40;;;;;;5241645;28;20210;-50
2022/05/19 01:43:21;;;;;;;4.03;3.57;;;16.00;74.00;;;;;;5245147;28;20588;-51
2022/05/19 01:46:11;;;;;;;4.30;3.27;;;15.90;74.70;;;;;;5244174;28;20856;-50
2022/05/19 01:49:03;;;;;;;3.47;3.17;;;15.90;75.30;;;;;;5242644;28;20434;-50
2022/05/19 01:51:54;;;;;;;4.03;3.73;;;15.80;76.20;;;;;;5240974;28;20444;-49
2022/05/19 01:54:36;;;;;;;3.63;3.43;;;15.80;76.90;;;;;;5237553;28;20468;-49
2022/05/19 01:57:24;;;;;;;3.87;3.67;;;15.80;77.80;;;;;;5237592;28;20787;-50
2022/05/19 02:00:08;;;;;;;3.50;3.30;;;15.80;78.70;;;;;;5238390;28;20464;-49
2022/05/19 02:02:51;;;;;;;5.50;3.20;;;15.70;79.60;;;;;;5243886;28;20445;-49
2022/05/19 02:05:50;;;;;;;6.20;2.93;;;15.70;79.90;;;;;;5239838;28;20952;-50
2022/05/19 02:08:30;;;;;;;3.30;3.13;;;15.70;81.10;;;;;;5241899;28;20849;-50
2022/05/19 02:11:06;;;;;;;5.40;3.47;;;15.70;82.00;;;;;;5241470;28;20436;-49
2022/05/19 02:13:37;;;;;;;3.27;3.17;;;15.60;82.50;;;;;;5242653;28;20440;-50
2022/05/19 02:16:12;;;;;;;8.73;3.27;;;15.60;83.20;;;;;;5239430;28;20844;-51
2022/05/19 02:18:44;;;;;;;4.07;3.57;;;15.50;84.10;;;;;;5229804;28;20741;-49
2022/05/19 02:21:17;;;;;;;5.20;3.03;;;15.50;84.70;;;;;;5241523;28;20456;-49
2022/05/19 02:23:48;;;;;;;3.10;2.90;;;15.50;85.80;;;;;;5245905;28;20427;-49
2022/05/19 02:26:18;;;;;;;3.87;3.57;;;15.50;85.80;;;;;;5240612;28;20801;-50
2022/05/19 02:29:00;;;;;;;13.10;3.20;;;15.50;86.20;;;;;;5244759;28;20587;-50
2022/05/19 02:31:31;;;;;;;3.50;3.27;;;15.40;86.90;;;;;;5242281;28;20187;-50
2022/05/19 02:34:01;;;;;;;6.77;3.70;;;15.40;88.30;;;;;;5240704;28;20453;-50
2022/05/19 02:36:32;;;;;;;4.10;3.60;;;15.40;88.50;;;;;;5236595;28;20226;-49
2022/05/19 02:39:02;;;;;;;4.30;3.40;;;15.30;89.00;;;;;;5246736;28;20315;-49
2022/05/19 02:41:36;;;;;;;6.10;3.33;;;15.30;89.70;;;;;;5237487;28;20707;-49
2022/05/19 02:44:07;;;;;;;2.77;2.63;;;15.30;90.00;;;;;;5242116;28;20240;-49
2022/05/19 02:46:37;;;;;;;7.53;3.10;;;15.20;90.30;;;;;;5241470;28;20485;-49
2022/05/19 02:49:09;;;;;;;3.37;3.17;;;15.20;90.50;;;;;;5238577;28;20545;-51
2022/05/19 02:51:39;;;;;;;3.90;3.50;;;15.20;91.10;;;;;;5239575;28;20658;-50
2022/05/19 02:54:10;;;;;;;8.37;3.50;;;15.20;90.80;;;;;;5231667;28;20473;-51
2022/05/19 02:56:40;;;;;;;5.40;3.20;;;15.20;91.10;;;;;;5248093;28;20615;-50
2022/05/19 02:59:11;;;;;;;5.73;3.77;;;15.10;91.40;;;;;;5249381;28;20193;-50
2022/05/19 03:01:42;;;;;;;4.37;3.80;;;15.10;91.30;;;;;;5244809;28;20662;-51
2022/05/19 03:04:12;;;;;;;3.73;3.30;;;15.10;91.80;;;;;;5233926;28;20192;-50
2022/05/19 03:06:43;;;;;;;5.23;3.40;;;15.10;91.90;;;;;;5246895;28;20690;-49
2022/05/19 03:09:14;;;;;;;3.43;3.23;;;15.10;92.00;;;;;;5242175;28;20179;-51
2022/05/19 03:11:44;;;;;;;11.17;3.00;;;15.10;92.20;;;;;;5237684;28;20194;-52
2022/05/19 03:14:15;;;;;;;6.47;3.87;;;15.00;92.40;;;;;;5245326;28;20175;-50
2022/05/19 03:16:45;;;;;;;4.07;3.10;;;15.00;92.80;;;;;;5243135;28;20263;-51
2022/05/19 03:19:16;;;;;;;2.70;2.60;;;15.00;92.90;;;;;;5244995;28;20179;-49
2022/05/19 03:21:47;;;;;;;12.47;3.33;;;15.00;92.70;;;;;;5247709;28;20186;-49
2022/05/19 03:24:17;;;;;;;5.30;3.13;;;15.00;92.80;;;;;;5242056;28;20515;-50
2022/05/19 03:26:48;;;;;;;3.40;3.10;;;15.10;92.60;;;;;;5236983;28;20237;-50
2022/05/19 03:29:18;;;;;;;7.40;3.80;;;15.10;92.60;;;;;;5247606;28;20210;-51
2022/05/19 03:31:49;;;;;;;2.47;2.37;;;15.00;92.80;;;;;;5243917;28;20186;-50
2022/05/19 03:34:20;;;;;;;3.33;2.70;;;15.10;92.50;;;;;;5244359;28;20790;-49
2022/05/19 03:36:51;;;;;;;9.37;3.80;;;15.10;92.70;;;;;;5242907;22;20371;-50
2022/05/19 03:39:22;;;;;;;3.63;3.30;;;15.10;92.80;;;;;;5229222;28;20175;-50
2022/05/19 03:41:52;;;;;;;5.13;2.43;;;15.10;92.80;;;;;;5211713;28;20550;-51
2022/05/19 03:44:23;;;;;;;3.03;2.83;;;15.10;92.90;;;;;;5217519;28;20183;-50
2022/05/19 03:46:53;;;;;;;5.30;3.30;;;15.10;92.40;;;;;;5226845;28;20241;-51
2022/05/19 03:49:24;;;;;;;3.60;3.40;;;15.20;92.50;;;;;;5210561;28;20193;-49
2022/05/19 03:51:54;;;;;;;2.87;2.77;;;15.20;92.40;;;;;;5211715;28;20191;-49
2022/05/19 03:54:25;;;;;;;3.20;2.73;;;15.30;92.20;;;;;;5209366;28;20201;-51
2022/05/19 03:56:55;;;;;;;3.83;3.53;;;15.30;91.80;;;;;;5205965;28;20230;-53
2022/05/19 03:59:26;;;;;;;3.23;3.03;;;15.40;91.80;;;;;;5206455;28;20179;-51
2022/05/19 04:01:57;;;;;;;4.30;3.00;;;15.40;91.30;;;;;;5194677;28;20188;-51
2022/05/19 04:04:27;;;;;;;2.93;2.83;;;15.50;91.20;;;;;;5200265;28;20199;-50
2022/05/19 04:06:58;;;;;;;3.77;3.50;;;15.50;91.10;;;;;;5206957;28;20369;-52
2022/05/19 04:09:28;;;;;;;6.40;3.47;;;15.60;90.60;;;;;;5216892;28;20229;-52
2022/05/19 04:11:59;;;;;;;5.37;3.50;;;15.70;90.30;;;;;;5200586;28;20182;-51
2022/05/19 04:14:29;;;;;;;6.40;3.50;;;15.80;89.90;;;;;;5206782;28;20271;-51
2022/05/19 04:17:00;;;;;;;4.60;2.73;;;15.90;88.20;;;;;;5195577;28;20204;-51
2022/05/19 04:19:31;;;;;;;5.80;3.00;;;15.90;87.70;;;;;;5204359;28;20747;-51
2022/05/19 04:22:01;;;;;;;3.30;3.00;;;15.90;87.90;;;;;;5180690;28;20732;-50
2022/05/19 04:24:32;;;;;;;3.17;3.07;;;15.90;87.20;;;;;;5190566;28;20249;-52
2022/05/19 04:27:03;;;;;;;3.33;3.03;;;15.90;86.70;;;;;;5205109;28;20195;-49
2022/05/19 04:29:33;;;;;;;7.57;3.20;;;16.00;86.50;;;;;;5193187;28;20206;-50
2022/05/19 04:32:04;;;;;;;3.93;3.60;;;15.90;86.30;;;;;;5192884;28;20474;-50
2022/05/19 04:34:35;;;;;;;3.77;3.40;;;15.90;86.20;;;;;;5205616;28;20305;-50
2022/05/19 04:37:05;;;;;;;3.17;2.83;;;16.00;86.70;;;;;;5182801;28;20881;-50
2022/05/19 04:39:36;;;;;;;4.50;3.10;;;16.00;86.10;;;;;;5174282;28;20200;-52
2022/05/19 04:42:08;;;;;;;8.50;3.53;;;16.20;85.50;;;;;;5199690;28;20612;-50
2022/05/19 04:44:40;;;;;;;3.07;2.73;;;16.30;84.50;;;;;;5208135;28;20176;-50
2022/05/19 04:47:10;;;;;;;5.70;3.67;;;16.50;83.80;;;;;;5179545;28;20462;-53
2022/05/19 04:49:41;;;;;;;8.40;2.87;;;16.70;81.50;;;;;;5193432;28;20517;-50
2022/05/19 04:52:12;;;;;;;3.57;3.27;;;17.10;80.70;;;;;;5193119;28;20188;-51
2022/05/19 04:54:42;;;;;;;4.03;3.70;;;17.90;76.40;;;;;;5178894;28;20252;-54
2022/05/19 04:57:13;;;;;;;5.43;3.10;;;18.80;71.30;;;;;;5179713;28;20203;-51
2022/05/19 04:59:43;;;;;;;3.50;2.70;;;20.20;63.50;;;;;;5193817;28;20217;-52
2022/05/19 05:02:14;;;;;;;4.53;3.20;;;21.40;58.20;;;;;;5172815;28;20620;-52
2022/05/19 05:04:44;;;;;;;3.50;3.30;;;22.90;52.90;;;;;;5189809;28;20180;-53
2022/05/19 05:07:15;;;;;;;6.83;3.30;;;24.50;47.90;;;;;;5183322;28;20227;-51
2022/05/19 05:09:45;;;;;;;2.83;2.63;;;26.00;44.50;;;;;;5196975;28;20180;-51
2022/05/19 05:12:16;;;;;;;5.60;4.23;;;27.30;41.50;;;;;;5202470;28;20235;-52
2022/05/19 05:14:47;;;;;;;3.47;3.27;;;28.60;38.00;;;;;;5200993;28;20555;-51
2022/05/19 05:17:18;;;;;;;3.83;3.10;;;29.30;35.40;;;;;;5187024;28;20199;-51
2022/05/19 05:19:49;;;;;;;3.70;3.13;;;29.20;35.20;;;;;;5199349;28;20211;-51
2022/05/19 05:22:19;;;;;;;3.33;3.10;;;29.00;35.00;;;;;;5203911;28;20435;-52
2022/05/19 05:24:50;;;;;;;3.30;2.80;;;29.20;34.80;;;;;;5184873;28;20652;-53
2022/05/19 05:27:21;;;;;;;2.80;2.60;;;28.80;35.00;;;;;;5202564;28;20204;-52
2022/05/19 05:29:51;;;;;;;3.60;3.30;;;29.40;34.60;;;;;;5205899;28;20495;-52
2022/05/19 05:32:22;;;;;;;2.97;2.50;;;29.40;34.40;;;;;;5196522;28;20229;-52
2022/05/19 05:34:52;;;;;;;8.80;2.70;;;30.00;34.00;;;;;;5203987;28;20218;-53
2022/05/19 05:37:23;;;;;;;3.97;3.27;;;30.50;32.80;;;;;;5169236;28;20215;-54
2022/05/19 05:39:53;;;;;;;3.57;2.83;;;30.50;32.40;;;;;;5168501;28;20297;-52
2022/05/19 05:42:24;;;;;;;5.70;3.77;;;30.50;32.70;;;;;;5201930;28;20187;-52
2022/05/19 05:44:55;;;;;;;3.60;2.80;;;30.20;32.70;;;;;;5202421;28;20266;-52
2022/05/19 05:47:25;;;;;;;4.40;3.13;;;29.90;32.90;;;;;;5177236;28;20572;-52
2022/05/19 05:49:56;;;;;;;3.97;2.80;;;29.20;33.30;;;;;;5166532;28;20194;-51
2022/05/19 05:52:26;;;;;;;2.97;2.80;;;28.60;34.40;;;;;;5203100;28;20188;-52
2022/05/19 05:54:59;;;;;;;11.73;2.67;;;27.90;35.60;;;;;;5195775;28;20702;-52
2022/05/19 05:57:33;;;;;;;57.83;4.10;;;27.40;36.70;;;;;;5201258;28;20274;-53
2022/05/19 06:00:06;;;;;;;2.70;2.53;;;27.20;36.90;;;;;;5204406;28;20485;-52
2022/05/19 06:02:37;;;;;;;13.53;4.03;;;26.30;38.40;;;;;;5185303;28;20442;-52
2022/05/19 06:05:08;;;;;;;5.57;2.47;;;25.90;39.30;;;;;;5177708;28;20942;-52
2022/05/19 06:07:39;;;;;;;3.57;3.30;;;25.60;40.00;;;;;;5178754;28;20237;-51
2022/05/19 06:10:12;;;;;;;4.43;3.40;;;25.70;39.90;;;;;;5181059;28;20442;-53
2022/05/19 06:12:43;;;;;;;7.23;3.20;;;26.10;39.30;;;;;;5197824;28;20434;-52
2022/05/19 06:15:15;;;;;;;16.80;3.67;;;26.20;39.40;;;;;;5182472;28;20482;-53
2022/05/19 06:17:45;;;;;;;4.47;3.30;;;26.70;39.00;;;;;;5191567;28;20443;-52
2022/05/19 06:20:17;;;;;;;10.00;3.27;;;27.60;37.80;;;;;;5196202;28;20462;-53
2022/05/19 06:22:48;;;;;;;13.13;2.93;;;28.00;37.10;;;;;;5200254;28;20601;-52
2022/05/19 06:25:21;;;;;;;6.87;3.57;;;28.60;36.30;;;;;;5182915;28;20504;-52
2022/05/19 06:27:52;;;;;;;4.40;3.00;;;29.30;35.20;;;;;;5210415;28;20191;-52
2022/05/19 06:30:23;;;;;;;5.10;2.67;;;29.60;34.30;;;;;;5199714;28;20430;-52
2022/05/19 06:32:54;;;;;;;3.00;2.90;;;30.00;34.00;;;;;;5193685;28;20256;-54
2022/05/19 06:35:27;;;;;;;3.70;3.10;;;30.30;33.90;;;;;;5208101;28;20998;-54
2022/05/19 06:37:58;;;;;;;6.43;3.50;;;30.50;32.60;;;;;;5201580;28;20203;-54
2022/05/19 06:40:30;;;;;;;9.50;3.13;;;30.40;33.20;;;;;;5204803;28;20970;-53
2022/05/19 06:43:05;;;;;;;3.93;3.57;;;30.60;33.40;;;;;;5187774;28;20438;-54
2022/05/19 06:45:36;;;;;;;7.10;3.60;;;31.00;32.70;;;;;;5202867;28;20956;-53
2022/05/19 06:48:07;;;;;;;4.00;3.60;;;30.90;32.00;;;;;;5206512;28;20445;-54
2022/05/19 06:50:38;;;;;;;3.53;3.20;;;31.10;32.80;;;;;;5206412;28;20817;-53
2022/05/19 06:53:09;;;;;;;4.10;2.50;;;31.30;31.80;;;;;;5184672;28;20183;-52
2022/05/19 06:55:39;;;;;;;3.37;3.07;;;32.30;31.20;;;;;;5181408;28;20457;-52
2022/05/19 06:58:10;;;;;;;2.60;2.50;;;32.80;30.50;;;;;;5202201;28;20268;-55
2022/05/19 07:00:40;;;;;;;2.70;2.50;;;33.00;30.00;;;;;;5181425;28;20245;-54
2022/05/19 07:03:11;;;;;;;3.50;3.10;;;33.50;29.90;;;;;;5184618;28;20291;-53
2022/05/19 07:05:42;;;;;;;4.80;3.10;;;33.40;29.80;;;;;;5208456;28;20191;-53
2022/05/19 07:08:13;;;;;;;4.30;3.83;;;33.40;29.90;;;;;;5205335;28;20196;-52
2022/05/19 07:10:43;;;;;;;3.83;3.50;;;33.40;29.70;;;;;;5191666;28;20195;-52
2022/05/19 07:13:14;;;;;;;3.63;3.33;;;33.20;29.60;;;;;;5193400;28;20187;-53
2022/05/19 07:15:44;;;;;;;6.47;2.87;;;33.70;29.80;;;;;;5192490;28;20210;-53
2022/05/19 07:18:15;;;;;;;4.73;3.17;;;33.60;29.40;;;;;;5208211;28;20218;-52
2022/05/19 07:20:47;;;;;;;3.80;2.50;;;33.70;29.60;;;;;;5189243;28;20211;-52
2022/05/19 07:23:24;;;;;;;3.90;3.30;;;33.80;29.20;;;;;;5209230;28;20277;-54
2022/05/19 07:25:55;;;;;;;3.87;2.93;;;33.80;29.30;;;;;;5185602;28;20294;-53
2022/05/19 07:28:26;;;;;;;7.73;3.90;;;34.40;29.10;;;;;;5181573;28;20248;-53
2022/05/19 07:30:57;;;;;;;5.70;3.20;;;34.50;28.30;;;;;;5174784;28;20183;-53
2022/05/19 07:33:28;;;;;;;3.97;2.90;;;34.80;28.70;;;;;;5188283;28;20199;-52
2022/05/19 07:36:00;;;;;;;5.60;3.80;;;35.50;27.90;;;;;;5197923;28;20700;-52
2022/05/19 07:38:30;;;;;;;6.72;3.75;;;36.00;27.60;;;;;;5180633;28;20550;-53
2022/05/19 07:41:02;;;;;;;5.57;3.15;;;36.10;27.60;;;;;;5204651;28;20218;-53
2022/05/19 07:43:39;;;;;;;11.52;3.22;;;36.50;27.50;;;;;;5199847;28;20179;-52
2022/05/19 07:46:11;;;;;;;3.28;3.08;;;36.70;27.20;;;;;;5204487;28;20270;-53
2022/05/19 07:48:41;;;;;;;2.58;2.47;;;36.40;27.10;;;;;;5207332;28;20202;-53
2022/05/19 07:51:12;;;;;;;4.22;3.45;;;36.70;27.30;;;;;;5205921;28;20383;-53
2022/05/19 07:53:42;;;;;;;6.47;4.55;;;36.70;26.90;;;;;;5189534;28;20187;-53
2022/05/19 07:56:14;;;;;;;6.15;3.35;;;37.10;26.90;;;;;;5190912;28;20229;-53
2022/05/19 07:58:48;;;;;;;3.15;2.95;;;37.40;26.60;;;;;;5197193;28;20195;-54
2022/05/19 08:01:18;;;;;;;4.25;3.35;;;37.60;26.30;;;;;;5198644;28;20214;-54
2022/05/19 08:03:49;;;;;;;3.05;2.95;;;37.50;26.50;;;;;;5199163;28;20237;-53
2022/05/19 08:06:19;;;;;;;3.63;2.75;;;37.30;26.30;;;;;;5198926;28;20750;-55
2022/05/19 08:08:51;;;;;;;3.53;2.90;;;37.50;26.40;;;;;;5203442;28;20218;-54
2022/05/19 08:11:22;;;;;;;3.75;3.45;;;37.50;26.30;;;;;;5179252;28;20179;-54
2022/05/19 08:16:42;;;;;;;3.33;3.08;;;36.70;26.90;;;;;;5192321;28;20227;-52
2022/05/19 08:19:15;;;;;;;6.30;3.10;;;36.00;27.40;;;;;;5185076;28;20180;-54
2022/05/19 08:21:46;;;;;;;7.10;3.72;;;35.90;28.00;;;;;;5184354;28;20215;-55
2022/05/19 08:24:17;;;;;;;4.32;2.85;;;36.70;27.90;;;;;;5192046;28;20661;-56
2022/05/19 08:26:47;;;;;;;20.73;4.32;;;36.80;26.80;;;;;;5195712;28;20258;-55
2022/05/19 08:29:19;;;;;;;4.72;3.08;;;36.60;26.90;;;;;;5197792;28;20195;-54
2022/05/19 08:31:50;;;;;;;3.53;3.20;;;36.90;27.10;;;;;;5179027;28;20598;-56
2022/05/19 08:34:22;;;;;;;3.47;3.17;;;36.50;27.30;;;;;;5189316;28;20187;-54
2022/05/19 08:36:52;;;;;;;5.05;3.38;;;36.80;27.00;;;;;;5184880;28;20211;-53
2022/05/19 08:39:25;;;;;;;3.65;3.35;;;37.20;27.00;;;;;;5201388;28;20197;-52
2022/05/19 08:42:01;;;;;;;3.55;3.25;;;37.30;26.60;;;;;;5198846;28;20179;-53
2022/05/19 08:44:41;;;;;;;3.33;3.13;;;37.00;26.90;;;;;;5185132;28;20269;-56
2022/05/19 08:47:15;;;;;;;5.40;4.23;;;36.10;27.90;;;;;;5193729;28;20199;-53
2022/05/19 08:50:01;;;;;;;3.00;2.90;;;35.10;28.80;;;;;;5185922;28;20187;-53
2022/05/19 08:52:44;;;;;;;3.77;3.57;;;33.50;30.20;;;;;;5201075;28;20189;-55
2022/05/19 08:55:17;;;;;;;3.03;2.83;;;31.80;32.40;;;;;;5197470;28;20461;-53
2022/05/19 08:58:13;;;;;;;5.77;3.00;;;30.60;34.90;;;;;;5169815;28;20468;-54
2022/05/19 09:01:08;;;;;;;4.83;3.20;;;29.60;37.10;;;;;;5186995;28;20470;-55
2022/05/19 09:03:57;;;;;;;3.90;3.60;;;29.00;37.70;;;;;;5197922;28;20525;-53
2022/05/19 09:07:56;;;;;;;4.20;3.33;;;28.60;38.70;;;;;;5182200;28;20462;-53
2022/05/19 09:09:52;;;;;;;2.90;2.70;;;28.50;38.90;;;;;;5201959;28;20475;-54
2022/05/19 09:12:23;;;;;;;4.23;3.13;;;28.50;39.40;;;;;;5198146;28;20435;-53
2022/05/19 09:14:54;;;;;;;4.73;3.30;;;28.50;39.80;;;;;;5184294;28;20777;-54
2022/05/19 09:17:29;;;;;;;7.70;3.10;;;28.70;39.70;;;;;;5198281;28;20462;-53
2022/05/19 09:20:09;;;;;;;2.90;2.73;;;28.70;39.20;;;;;;5199925;28;20210;-59
2022/05/19 09:22:40;;;;;;;19.80;3.03;;;28.70;39.30;;;;;;5194027;28;20956;-53
2022/05/19 09:25:15;;;;;;;3.40;3.10;;;28.70;39.10;;;;;;5179761;28;21296;-57
2022/05/19 09:27:49;;;;;;;2.50;2.33;;;28.70;39.40;;;;;;5198591;28;20937;-52
2022/05/19 09:30:46;;;;;;;3.30;3.10;;;28.70;39.00;;;;;;5197095;28;20485;-55
2022/05/19 09:33:33;;;;;;;4.03;3.57;;;28.80;39.10;;;;;;5189447;28;20438;-55
2022/05/19 09:36:11;;;;;;;2.80;2.70;;;28.80;39.40;;;;;;5202692;28;20498;-53
2022/05/19 09:38:47;;;;;;;5.90;3.27;;;28.90;39.00;;;;;;5184506;28;20461;-54
2022/05/19 09:41:39;;;;;;;3.60;3.23;;;29.00;38.50;;;;;;5206993;28;20458;-52
2022/05/19 09:44:15;;;;;;;4.07;3.20;;;28.90;38.30;;;;;;5200482;28;20437;-54
2022/05/19 09:46:49;;;;;;;3.47;3.17;;;28.90;38.60;;;;;;5202482;28;20799;-57
2022/05/19 09:49:29;;;;;;;2.93;2.73;;;28.90;38.20;;;;;;5205959;28;20419;-53
2022/05/19 09:52:03;;;;;;;3.33;3.00;;;28.70;38.60;;;;;;5190320;28;20528;-53
2022/05/19 09:54:35;;;;;;;4.90;3.20;;;28.70;39.20;;;;;;5204200;28;20444;-53
2022/05/19 09:57:17;;;;;;;2.70;2.60;;;28.60;39.00;;;;;;5194299;28;20461;-54
2022/05/19 09:59:51;;;;;;;3.70;2.70;;;28.70;39.10;;;;;;5186872;28;20521;-53
2022/05/19 10:02:25;;;;;;;7.20;2.30;;;28.90;39.40;;;;;;5193260;28;20442;-53
2022/05/19 10:04:58;;;;;;;3.63;2.60;;;28.70;39.20;;;;;;5181410;28;20442;-54
2022/05/19 10:07:37;;;;;;;3.00;2.90;;;28.80;39.30;;;;;;5203933;28;20439;-55
2022/05/19 10:10:26;;;;;;;3.97;3.47;;;28.80;39.30;;;;;;5201785;28;20473;-53
2022/05/19 10:13:02;;;;;;;5.13;3.33;;;28.90;39.20;;;;;;5203438;28;20446;-55
2022/05/19 10:16:10;;;;;;;5.13;3.20;;;28.70;39.50;;;;;;5183359;28;20481;-54
2022/05/19 10:18:50;;;;;;;2.60;2.40;;;28.60;40.00;;;;;;5204180;28;20442;-54
2022/05/19 10:21:43;;;;;;;6.63;5.93;;;28.50;40.10;;;;;;5182252;28;20477;-54
2022/05/19 10:24:24;;;;;;;4.50;3.40;;;28.60;39.50;;;;;;5180314;28;20469;-54
2022/05/19 10:33:19;;;;;;;3.10;2.43;;;28.90;38.90;;;;;;5196563;28;20438;-54
2022/05/19 10:36:18;;;;;;;3.20;2.77;;;28.80;38.90;;;;;;5202452;28;20488;-54
2022/05/19 10:39:02;;;;;;;4.27;3.17;;;28.80;39.40;;;;;;5182106;28;20470;-53
2022/05/19 10:42:01;;;;;;;3.40;3.20;;;28.80;38.90;;;;;;5200725;28;20468;-54
2022/05/19 10:44:47;;;;;;;3.47;3.17;;;28.80;38.50;;;;;;5179490;28;20442;-54
2022/05/19 10:47:26;;;;;;;7.23;5.20;;;28.80;38.50;;;;;;5199028;28;20450;-55
2022/05/19 10:50:13;;;;;;;3.77;3.47;;;28.80;38.50;;;;;;5194724;28;20469;-54
2022/05/19 10:52:55;;;;;;;2.83;2.63;;;28.80;38.30;;;;;;5184523;28;20495;-54
2022/05/19 10:55:45;;;;;;;3.83;3.53;;;28.80;37.90;;;;;;5193797;28;20439;-53
2022/05/19 10:58:42;;;;;;;4.07;2.93;;;28.90;38.50;;;;;;5187608;28;20438;-55
2022/05/19 11:01:19;;;;;;;4.87;3.43;;;28.90;38.20;;;;;;5199307;28;20477;-54
2022/05/19 11:04:11;;;;;;;4.83;2.90;;;29.00;38.20;;;;;;5180335;28;20434;-52
2022/05/19 11:07:20;;;;;;;5.33;3.60;;;29.20;38.10;;;;;;5183367;28;20865;-55
2022/05/19 11:10:04;;;;;;;2.40;2.30;;;29.30;38.30;;;;;;5199995;28;20449;-53
2022/05/19 11:12:46;;;;;;;3.23;2.67;;;29.30;37.90;;;;;;5193538;28;20767;-54
2022/05/19 11:15:36;;;;;;;2.60;2.50;;;29.30;37.60;;;;;;5198137;28;20809;-53
2022/05/19 11:18:23;;;;;;;5.37;3.67;;;29.30;37.70;;;;;;5204682;28;20536;-55
2022/05/19 11:21:03;;;;;;;5.03;3.37;;;29.50;37.00;;;;;;5199595;28;20458;-52
2022/05/19 11:23:52;;;;;;;3.10;2.90;;;29.60;36.80;;;;;;5199348;28;20543;-56
2022/05/19 11:26:38;;;;;;;2.37;2.37;;;29.70;36.80;;;;;;5181767;28;20527;-54
2022/05/19 11:29:27;;;;;;;3.00;2.70;;;30.00;35.40;;;;;;5209170;28;20441;-53
2022/05/19 11:32:23;;;;;;;2.80;2.70;;;30.00;35.20;;;;;;5199208;28;20449;-55
2022/05/19 11:35:33;;;;;;;3.33;3.00;;;30.10;35.40;;;;;;5179459;28;20480;-54
2022/05/19 11:38:27;;;;;;;2.43;2.33;;;30.10;35.90;;;;;;5167412;28;20513;-55
2022/05/19 11:41:06;;;;;;;3.80;3.50;;;30.10;36.20;;;;;;5197901;28;20465;-53
2022/05/19 11:43:40;;;;;;;4.23;3.10;;;30.20;35.70;;;;;;5203460;28;20434;-54
2022/05/19 11:46:37;;;;;;;5.27;3.30;;;30.20;35.60;;;;;;5202546;28;20493;-52
2022/05/19 11:55:42;;;;;;;7.07;3.73;;;30.30;35.80;;;;;;5205487;28;20437;-54
2022/05/19 11:58:23;;;;;;;4.60;2.70;;;30.50;35.90;;;;;;5190132;28;20527;-53
2022/05/19 12:01:03;;;;;;;2.70;2.27;;;30.30;35.70;;;;;;5190335;28;20524;-55
2022/05/19 12:03:44;;;;;;;4.50;2.93;;;30.10;35.70;;;;;;5183903;28;20433;-53
2022/05/19 12:06:26;;;;;;;6.03;2.80;;;30.10;35.80;;;;;;5179641;28;20453;-54
2022/05/19 12:08:59;;;;;;;4.37;2.23;;;30.20;35.80;;;;;;5173410;28;20433;-52
2022/05/19 12:11:40;;;;;;;8.83;2.33;;;30.30;35.70;;;;;;5202810;28;20434;-54
2022/05/19 12:14:13;;;;;;;5.00;2.80;;;30.40;35.90;;;;;;5177672;28;20473;-53
2022/05/19 12:16:59;;;;;;;5.10;2.63;;;30.40;35.20;;;;;;5184128;28;20511;-54
2022/05/19 12:19:34;;;;;;;5.37;2.80;;;30.20;35.40;;;;;;5186247;28;20429;-53
2022/05/19 12:22:17;;;;;;;3.10;2.73;;;30.10;35.60;;;;;;5182819;28;20437;-52
2022/05/19 12:25:04;;;;;;;3.23;2.43;;;30.00;35.90;;;;;;5202248;28;20438;-54
2022/05/19 12:27:56;;;;;;;3.77;3.07;;;29.80;35.90;;;;;;5182416;28;20532;-53
2022/05/19 12:33:52;;;;;;;2.70;2.60;;;29.60;36.60;;;;;;5197097;28;20678;-53
2022/05/19 12:36:41;;;;;;;6.20;3.53;;;29.60;35.90;;;;;;5206595;28;20465;-54
2022/05/19 12:39:29;;;;;;;2.50;2.30;;;29.40;36.00;;;;;;5184573;28;20952;-53
2022/05/19 12:42:16;;;;;;;2.63;2.43;;;29.30;35.90;;;;;;5202031;28;20462;-54
2022/05/19 12:44:51;;;;;;;3.07;2.87;;;29.30;36.30;;;;;;5206264;28;20430;-53
2022/05/19 12:47:32;;;;;;;2.37;2.27;;;29.40;36.60;;;;;;5168766;28;20469;-54
2022/05/19 12:50:10;;;;;;;3.23;3.03;;;29.50;35.90;;;;;;5191906;28;20468;-53
2022/05/19 12:53:21;;;;;;;2.60;2.40;;;29.50;35.00;;;;;;5205534;28;20521;-53
2022/05/19 12:55:55;;;;;;;2.67;2.47;;;29.40;34.90;;;;;;5166116;28;20462;-54
2022/05/19 12:58:37;;;;;;;3.63;2.50;;;29.50;35.20;;;;;;5201627;28;20446;-53
2022/05/19 13:01:32;;;;;;;7.70;2.30;;;29.50;34.90;;;;;;5197979;28;20463;-53
2022/05/19 13:04:02;;;;;;;3.47;2.50;;;29.60;35.50;;;;;;5201493;28;20430;-52
2022/05/19 13:06:34;;;;;;;3.50;2.50;;;29.70;35.10;;;;;;5195694;28;20973;-53
2022/05/19 13:09:08;;;;;;;2.43;2.30;;;29.70;34.90;;;;;;5204217;28;20194;-54
2022/05/19 13:12:07;;;;;;;1.90;1.80;;;29.70;34.80;;;;;;5183309;28;20442;-53
2022/05/19 13:14:50;;;;;;;3.17;2.80;;;29.80;34.60;;;;;;5201314;28;20485;-52
2022/05/19 13:17:33;;;;;;;2.50;2.10;;;29.90;33.50;;;;;;5180971;28;20458;-54
2022/05/19 13:20:12;;;;;;;3.17;2.07;;;29.90;33.00;;;;;;5207862;28;20476;-53
2022/05/19 13:22:50;;;;;;;10.83;2.73;;;29.90;33.50;;;;;;5182992;28;20425;-55
2022/05/19 13:25:22;;;;;;;2.03;1.93;;;29.90;32.90;;;;;;5204086;28;20452;-54
2022/05/19 13:31:27;;;;;;;6.70;2.53;;;29.70;33.60;;;;;;5202473;28;20444;-52
2022/05/19 13:33:59;;;;;;;2.43;2.23;;;29.60;33.50;;;;;;5183992;28;20439;-53
2022/05/19 13:36:33;;;;;;;5.93;4.73;;;29.40;33.90;;;;;;5178168;28;20971;-54
2022/05/19 13:39:08;;;;;;;2.53;2.33;;;29.40;34.30;;;;;;5174711;28;20445;-54
2022/05/19 13:42:06;;;;;;;2.70;2.50;;;29.40;33.80;;;;;;5182071;28;20984;-53
2022/05/19 13:44:47;;;;;;;4.27;2.27;;;29.40;34.20;;;;;;5196823;28;20441;-53
2022/05/19 13:47:23;;;;;;;2.30;2.10;;;29.40;34.10;;;;;;5202238;28;20449;-54
2022/05/19 13:50:05;;;;;;;2.33;2.13;;;29.40;34.10;;;;;;5204747;28;20445;-54
2022/05/19 13:52:40;;;;;;;6.37;2.27;;;29.50;34.40;;;;;;5183117;28;20473;-54
2022/05/19 13:55:30;;;;;;;2.60;2.50;;;29.40;34.10;;;;;;5196396;28;20802;-54